sensor_id;sensor_type;location;lat;lon;timestamp;P1;P2;P0
57884;PMS5003;43703;51.060;-0.086;2022-08-03T00:00:56;10;8;
57884;PMS5003;43703;51.060;-0.086;2022-08-03T00:03:21;10;9;
57884;PMS5003;43703;51.060;-0.086;2022-08-03T00:05:47;9;7;
57884;PMS5003;43703;51.060;-0.086;2022-08-03T00:08:12;5;5;
57884;PMS5003;43703;51.060;-0.086;2022-08-03T00:10:38;7;6;
57884;PMS5003;43703;51.060;-0.086;2022-08-03T00:13:04;4;4;
57884;PMS5003;43703;51.060;-0.086;2022-08-03T00:15:30;8;8;
57884;PMS5003;43703;51.060;-0.086;2022-08-03T00:17:55;8;7;
57884;PMS5003;43703;51.060;-0.086;2022-08-03T00:20:21;9;7;
57884;PMS5003;43703;51.060;-0.086;2022-08-03T00:22:47;10;7;
57884;PMS5003;43703;51.060;-0.086;2022-08-03T00:25:13;8;5;
57884;PMS5003;43703;51.060;-0.086;2022-08-03T00:27:39;8;7;
57884;PMS5003;43703;51.060;-0.086;2022-08-03T00:30:05;9;7;
57884;PMS5003;43703;51.060;-0.086;2022-08-03T00:32:30;8;6;
57884;PMS5003;43703;51.060;-0.086;2022-08-03T00:34:55;8;8;
57884;PMS5003;43703;51.060;-0.086;2022-08-03T00:37:21;5;5;
57884;PMS5003;43703;51.060;-0.086;2022-08-03T00:39:47;5;5;
57884;PMS5003;43703;51.060;-0.086;2022-08-03T00:42:12;7;5;
57884;PMS5003;43703;51.060;-0.086;2022-08-03T00:44:38;8;8;
57884;PMS5003;43703;51.060;-0.086;2022-08-03T00:47:04;8;8;
57884;PMS5003;43703;51.060;-0.086;2022-08-03T00:49:30;11;8;
57884;PMS5003;43703;51.060;-0.086;2022-08-03T00:51:56;7;7;
57884;PMS5003;43703;51.060;-0.086;2022-08-03T00:54:21;7;6;
57884;PMS5003;43703;51.060;-0.086;2022-08-03T00:56:47;10;10;
57884;PMS5003;43703;51.060;-0.086;2022-08-03T00:59:13;7;5;
57884;PMS5003;43703;51.060;-0.086;2022-08-03T01:01:38;9;6;
57884;PMS5003;43703;51.060;-0.086;2022-08-03T01:04:04;8;5;
57884;PMS5003;43703;51.060;-0.086;2022-08-03T01:06:32;7;7;
57884;PMS5003;43703;51.060;-0.086;2022-08-03T01:08:57;9;6;
57884;PMS5003;43703;51.060;-0.086;2022-08-03T01:11:23;8;8;
57884;PMS5003;43703;51.060;-0.086;2022-08-03T01:13:48;8;8;
57884;PMS5003;43703;51.060;-0.086;2022-08-03T01:16:14;8;8;
57884;PMS5003;43703;51.060;-0.086;2022-08-03T01:18:40;5;3;
57884;PMS5003;43703;51.060;-0.086;2022-08-03T01:21:07;7;5;
57884;PMS5003;43703;51.060;-0.086;2022-08-03T01:23:34;7;7;
57884;PMS5003;43703;51.060;-0.086;2022-08-03T01:26:04;5;5;
57884;PMS5003;43703;51.060;-0.086;2022-08-03T01:28:24;7;7;
57884;PMS5003;43703;51.060;-0.086;2022-08-03T01:30:47;10;6;
57884;PMS5003;43703;51.060;-0.086;2022-08-03T01:33:14;10;7;
57884;PMS5003;43703;51.060;-0.086;2022-08-03T01:35:40;7;5;
57884;PMS5003;43703;51.060;-0.086;2022-08-03T01:38:05;6;6;
57884;PMS5003;43703;51.060;-0.086;2022-08-03T01:40:30;5;5;
57884;PMS5003;43703;51.060;-0.086;2022-08-03T01:42:56;4;4;
57884;PMS5003;43703;51.060;-0.086;2022-08-03T01:45:22;6;5;
57884;PMS5003;43703;51.060;-0.086;2022-08-03T01:47:48;6;6;
57884;PMS5003;43703;51.060;-0.086;2022-08-03T01:50:13;9;8;
57884;PMS5003;43703;51.060;-0.086;2022-08-03T01:52:39;6;6;
57884;PMS5003;43703;51.060;-0.086;2022-08-03T01:55:05;6;6;
57884;PMS5003;43703;51.060;-0.086;2022-08-03T01:57:30;7;6;
57884;PMS5003;43703;51.060;-0.086;2022-08-03T01:59:56;8;8;
57884;PMS5003;43703;51.060;-0.086;2022-08-03T02:02:22;7;5;
57884;PMS5003;43703;51.060;-0.086;2022-08-03T02:04:48;8;5;
57884;PMS5003;43703;51.060;-0.086;2022-08-03T02:07:14;8;5;
57884;PMS5003;43703;51.060;-0.086;2022-08-03T02:09:39;7;7;
57884;PMS5003;43703;51.060;-0.086;2022-08-03T02:12:06;5;5;
57884;PMS5003;43703;51.060;-0.086;2022-08-03T02:14:31;4;4;
57884;PMS5003;43703;51.060;-0.086;2022-08-03T02:16:57;8;7;
57884;PMS5003;43703;51.060;-0.086;2022-08-03T02:19:22;5;5;
57884;PMS5003;43703;51.060;-0.086;2022-08-03T02:21:48;8;6;
57884;PMS5003;43703;51.060;-0.086;2022-08-03T02:24:14;7;5;
57884;PMS5003;43703;51.060;-0.086;2022-08-03T02:26:40;4;4;
57884;PMS5003;43703;51.060;-0.086;2022-08-03T02:29:08;7;5;
57884;PMS5003;43703;51.060;-0.086;2022-08-03T02:31:33;5;5;
57884;PMS5003;43703;51.060;-0.086;2022-08-03T02:33:59;4;4;
57884;PMS5003;43703;51.060;-0.086;2022-08-03T02:36:24;6;4;
57884;PMS5003;43703;51.060;-0.086;2022-08-03T02:38:50;6;6;
57884;PMS5003;43703;51.060;-0.086;2022-08-03T02:41:16;6;6;
57884;PMS5003;43703;51.060;-0.086;2022-08-03T02:43:42;6;6;
57884;PMS5003;43703;51.060;-0.086;2022-08-03T02:46:07;4;4;
57884;PMS5003;43703;51.060;-0.086;2022-08-03T02:48:33;6;4;
57884;PMS5003;43703;51.060;-0.086;2022-08-03T02:50:58;5;4;
57884;PMS5003;43703;51.060;-0.086;2022-08-03T02:53:24;6;6;
57884;PMS5003;43703;51.060;-0.086;2022-08-03T02:55:50;6;5;
57884;PMS5003;43703;51.060;-0.086;2022-08-03T02:58:16;8;5;
57884;PMS5003;43703;51.060;-0.086;2022-08-03T03:00:42;6;5;
57884;PMS5003;43703;51.060;-0.086;2022-08-03T03:03:07;4;4;
57884;PMS5003;43703;51.060;-0.086;2022-08-03T03:05:33;6;6;
57884;PMS5003;43703;51.060;-0.086;2022-08-03T03:07:59;6;4;
57884;PMS5003;43703;51.060;-0.086;2022-08-03T03:10:24;7;7;
57884;PMS5003;43703;51.060;-0.086;2022-08-03T03:12:51;4;3;
57884;PMS5003;43703;51.060;-0.086;2022-08-03T03:15:16;6;4;
57884;PMS5003;43703;51.060;-0.086;2022-08-03T03:17:41;6;6;
57884;PMS5003;43703;51.060;-0.086;2022-08-03T03:20:07;9;7;
57884;PMS5003;43703;51.060;-0.086;2022-08-03T03:22:32;4;4;
57884;PMS5003;43703;51.060;-0.086;2022-08-03T03:24:58;3;3;
57884;PMS5003;43703;51.060;-0.086;2022-08-03T03:27:24;5;4;
57884;PMS5003;43703;51.060;-0.086;2022-08-03T03:29:50;5;5;
57884;PMS5003;43703;51.060;-0.086;2022-08-03T03:32:15;4;4;
57884;PMS5003;43703;51.060;-0.086;2022-08-03T03:34:41;6;6;
57884;PMS5003;43703;51.060;-0.086;2022-08-03T03:37:07;7;5;
57884;PMS5003;43703;51.060;-0.086;2022-08-03T03:39:33;7;6;
57884;PMS5003;43703;51.060;-0.086;2022-08-03T03:41:58;6;5;
57884;PMS5003;43703;51.060;-0.086;2022-08-03T03:44:25;5;5;
57884;PMS5003;43703;51.060;-0.086;2022-08-03T03:46:50;6;5;
57884;PMS5003;43703;51.060;-0.086;2022-08-03T03:49:15;5;5;
57884;PMS5003;43703;51.060;-0.086;2022-08-03T03:51:41;10;7;
57884;PMS5003;43703;51.060;-0.086;2022-08-03T03:54:07;5;4;
57884;PMS5003;43703;51.060;-0.086;2022-08-03T03:56:33;6;5;
57884;PMS5003;43703;51.060;-0.086;2022-08-03T03:58:58;7;5;
57884;PMS5003;43703;51.060;-0.086;2022-08-03T04:01:25;6;6;
57884;PMS5003;43703;51.060;-0.086;2022-08-03T04:03:50;5;4;
57884;PMS5003;43703;51.060;-0.086;2022-08-03T04:06:15;6;5;
57884;PMS5003;43703;51.060;-0.086;2022-08-03T04:08:41;2;2;
57884;PMS5003;43703;51.060;-0.086;2022-08-03T04:11:09;11;5;
57884;PMS5003;43703;51.060;-0.086;2022-08-03T04:13:34;7;6;
57884;PMS5003;43703;51.060;-0.086;2022-08-03T04:15:59;8;7;
57884;PMS5003;43703;51.060;-0.086;2022-08-03T04:18:25;8;5;
57884;PMS5003;43703;51.060;-0.086;2022-08-03T04:20:50;6;6;
57884;PMS5003;43703;51.060;-0.086;2022-08-03T04:23:16;4;4;
57884;PMS5003;43703;51.060;-0.086;2022-08-03T04:25:41;6;4;
57884;PMS5003;43703;51.060;-0.086;2022-08-03T04:28:07;5;5;
57884;PMS5003;43703;51.060;-0.086;2022-08-03T04:30:35;6;5;
57884;PMS5003;43703;51.060;-0.086;2022-08-03T04:32:59;7;7;
57884;PMS5003;43703;51.060;-0.086;2022-08-03T04:35:25;7;6;
57884;PMS5003;43703;51.060;-0.086;2022-08-03T04:37:51;5;3;
57884;PMS5003;43703;51.060;-0.086;2022-08-03T04:40:18;5;5;
57884;PMS5003;43703;51.060;-0.086;2022-08-03T04:42:42;8;7;
57884;PMS5003;43703;51.060;-0.086;2022-08-03T04:45:09;5;5;
57884;PMS5003;43703;51.060;-0.086;2022-08-03T04:47:34;8;6;
57884;PMS5003;43703;51.060;-0.086;2022-08-03T04:50:00;5;5;
57884;PMS5003;43703;51.060;-0.086;2022-08-03T04:52:26;6;5;
57884;PMS5003;43703;51.060;-0.086;2022-08-03T04:54:52;6;5;
57884;PMS5003;43703;51.060;-0.086;2022-08-03T04:57:18;6;5;
57884;PMS5003;43703;51.060;-0.086;2022-08-03T04:59:43;7;6;
57884;PMS5003;43703;51.060;-0.086;2022-08-03T05:02:09;5;4;
57884;PMS5003;43703;51.060;-0.086;2022-08-03T05:04:35;4;4;
57884;PMS5003;43703;51.060;-0.086;2022-08-03T05:07:01;7;6;
57884;PMS5003;43703;51.060;-0.086;2022-08-03T05:09:27;8;7;
57884;PMS5003;43703;51.060;-0.086;2022-08-03T05:11:52;7;6;
57884;PMS5003;43703;51.060;-0.086;2022-08-03T05:14:18;8;6;
57884;PMS5003;43703;51.060;-0.086;2022-08-03T05:16:45;7;7;
57884;PMS5003;43703;51.060;-0.086;2022-08-03T05:19:10;6;6;
57884;PMS5003;43703;51.060;-0.086;2022-08-03T05:21:36;7;6;
57884;PMS5003;43703;51.060;-0.086;2022-08-03T05:24:02;4;4;
57884;PMS5003;43703;51.060;-0.086;2022-08-03T05:26:28;5;4;
57884;PMS5003;43703;51.060;-0.086;2022-08-03T05:28:54;4;4;
57884;PMS5003;43703;51.060;-0.086;2022-08-03T05:31:19;7;4;
57884;PMS5003;43703;51.060;-0.086;2022-08-03T05:33:45;9;6;
57884;PMS5003;43703;51.060;-0.086;2022-08-03T05:36:11;6;5;
57884;PMS5003;43703;51.060;-0.086;2022-08-03T05:38:37;6;6;
57884;PMS5003;43703;51.060;-0.086;2022-08-03T05:41:03;7;6;
57884;PMS5003;43703;51.060;-0.086;2022-08-03T05:43:28;6;5;
57884;PMS5003;43703;51.060;-0.086;2022-08-03T05:45:54;10;9;
57884;PMS5003;43703;51.060;-0.086;2022-08-03T05:48:20;5;5;
57884;PMS5003;43703;51.060;-0.086;2022-08-03T05:50:46;5;5;
57884;PMS5003;43703;51.060;-0.086;2022-08-03T05:53:11;5;5;
57884;PMS5003;43703;51.060;-0.086;2022-08-03T05:55:37;4;2;
57884;PMS5003;43703;51.060;-0.086;2022-08-03T05:58:03;5;4;
57884;PMS5003;43703;51.060;-0.086;2022-08-03T06:00:29;3;3;
57884;PMS5003;43703;51.060;-0.086;2022-08-03T06:02:54;4;4;
57884;PMS5003;43703;51.060;-0.086;2022-08-03T06:05:20;3;2;
57884;PMS5003;43703;51.060;-0.086;2022-08-03T06:07:46;1;1;
57884;PMS5003;43703;51.060;-0.086;2022-08-03T06:10:12;7;3;
57884;PMS5003;43703;51.060;-0.086;2022-08-03T06:12:38;2;2;
57884;PMS5003;43703;51.060;-0.086;2022-08-03T06:15:04;2;2;
57884;PMS5003;43703;51.060;-0.086;2022-08-03T06:17:29;4;4;
57884;PMS5003;43703;51.060;-0.086;2022-08-03T06:19:55;3;3;
57884;PMS5003;43703;51.060;-0.086;2022-08-03T06:22:21;2;2;
57884;PMS5003;43703;51.060;-0.086;2022-08-03T06:24:47;4;3;
57884;PMS5003;43703;51.060;-0.086;2022-08-03T06:27:13;4;2;
57884;PMS5003;43703;51.060;-0.086;2022-08-03T06:29:39;2;2;
57884;PMS5003;43703;51.060;-0.086;2022-08-03T06:32:04;0;0;
57884;PMS5003;43703;51.060;-0.086;2022-08-03T06:34:30;2;2;
57884;PMS5003;43703;51.060;-0.086;2022-08-03T06:36:56;0;0;
57884;PMS5003;43703;51.060;-0.086;2022-08-03T06:39:22;1;1;
57884;PMS5003;43703;51.060;-0.086;2022-08-03T06:41:48;0;0;
57884;PMS5003;43703;51.060;-0.086;2022-08-03T06:44:13;1;1;
57884;PMS5003;43703;51.060;-0.086;2022-08-03T06:46:39;1;1;
57884;PMS5003;43703;51.060;-0.086;2022-08-03T06:49:05;0;0;
57884;PMS5003;43703;51.060;-0.086;2022-08-03T06:51:31;0;0;
57884;PMS5003;43703;51.060;-0.086;2022-08-03T06:53:57;0;0;
57884;PMS5003;43703;51.060;-0.086;2022-08-03T06:56:23;0;0;
57884;PMS5003;43703;51.060;-0.086;2022-08-03T06:58:48;0;0;
57884;PMS5003;43703;51.060;-0.086;2022-08-03T07:01:14;0;0;
57884;PMS5003;43703;51.060;-0.086;2022-08-03T07:03:40;0;0;
57884;PMS5003;43703;51.060;-0.086;2022-08-03T07:06:06;0;0;
57884;PMS5003;43703;51.060;-0.086;2022-08-03T07:08:32;1;0;
57884;PMS5003;43703;51.060;-0.086;2022-08-03T07:10:58;0;0;
57884;PMS5003;43703;51.060;-0.086;2022-08-03T07:13:23;0;0;
57884;PMS5003;43703;51.060;-0.086;2022-08-03T07:15:49;1;1;
57884;PMS5003;43703;51.060;-0.086;2022-08-03T07:18:15;0;0;
57884;PMS5003;43703;51.060;-0.086;2022-08-03T07:20:41;0;0;
57884;PMS5003;43703;51.060;-0.086;2022-08-03T07:23:07;1;1;
57884;PMS5003;43703;51.060;-0.086;2022-08-03T07:25:33;0;0;
57884;PMS5003;43703;51.060;-0.086;2022-08-03T07:27:59;1;1;
57884;PMS5003;43703;51.060;-0.086;2022-08-03T07:30:24;2;1;
57884;PMS5003;43703;51.060;-0.086;2022-08-03T07:32:50;0;0;
57884;PMS5003;43703;51.060;-0.086;2022-08-03T07:35:16;2;2;
57884;PMS5003;43703;51.060;-0.086;2022-08-03T07:37:42;0;0;
57884;PMS5003;43703;51.060;-0.086;2022-08-03T07:40:08;4;2;
57884;PMS5003;43703;51.060;-0.086;2022-08-03T07:42:34;0;0;
57884;PMS5003;43703;51.060;-0.086;2022-08-03T07:44:59;1;1;
57884;PMS5003;43703;51.060;-0.086;2022-08-03T07:47:26;1;1;
57884;PMS5003;43703;51.060;-0.086;2022-08-03T07:49:51;1;1;
57884;PMS5003;43703;51.060;-0.086;2022-08-03T07:52:17;1;1;
57884;PMS5003;43703;51.060;-0.086;2022-08-03T07:54:43;1;1;
57884;PMS5003;43703;51.060;-0.086;2022-08-03T07:57:09;1;1;
57884;PMS5003;43703;51.060;-0.086;2022-08-03T07:59:34;1;0;
57884;PMS5003;43703;51.060;-0.086;2022-08-03T08:02:00;3;1;
57884;PMS5003;43703;51.060;-0.086;2022-08-03T08:04:26;2;2;
57884;PMS5003;43703;51.060;-0.086;2022-08-03T08:06:52;1;1;
57884;PMS5003;43703;51.060;-0.086;2022-08-03T08:09:18;2;2;
57884;PMS5003;43703;51.060;-0.086;2022-08-03T08:11:43;2;2;
57884;PMS5003;43703;51.060;-0.086;2022-08-03T08:14:09;1;1;
57884;PMS5003;43703;51.060;-0.086;2022-08-03T08:16:35;1;1;
57884;PMS5003;43703;51.060;-0.086;2022-08-03T08:19:01;2;2;
57884;PMS5003;43703;51.060;-0.086;2022-08-03T08:21:27;2;1;
57884;PMS5003;43703;51.060;-0.086;2022-08-03T08:23:53;1;1;
57884;PMS5003;43703;51.060;-0.086;2022-08-03T08:26:19;5;5;
57884;PMS5003;43703;51.060;-0.086;2022-08-03T08:28:45;7;4;
57884;PMS5003;43703;51.060;-0.086;2022-08-03T08:31:10;4;3;
57884;PMS5003;43703;51.060;-0.086;2022-08-03T08:33:36;5;3;
57884;PMS5003;43703;51.060;-0.086;2022-08-03T08:36:02;4;4;
57884;PMS5003;43703;51.060;-0.086;2022-08-03T08:38:28;7;5;
57884;PMS5003;43703;51.060;-0.086;2022-08-03T08:40:54;2;2;
57884;PMS5003;43703;51.060;-0.086;2022-08-03T08:43:20;3;3;
57884;PMS5003;43703;51.060;-0.086;2022-08-03T08:45:46;4;4;
57884;PMS5003;43703;51.060;-0.086;2022-08-03T08:48:11;5;4;
57884;PMS5003;43703;51.060;-0.086;2022-08-03T08:50:37;5;5;
57884;PMS5003;43703;51.060;-0.086;2022-08-03T08:53:03;6;6;
57884;PMS5003;43703;51.060;-0.086;2022-08-03T08:55:29;6;6;
57884;PMS5003;43703;51.060;-0.086;2022-08-03T08:57:55;6;6;
57884;PMS5003;43703;51.060;-0.086;2022-08-03T09:00:20;9;7;
57884;PMS5003;43703;51.060;-0.086;2022-08-03T09:02:46;9;6;
57884;PMS5003;43703;51.060;-0.086;2022-08-03T09:05:12;8;5;
57884;PMS5003;43703;51.060;-0.086;2022-08-03T09:07:37;8;7;
57884;PMS5003;43703;51.060;-0.086;2022-08-03T09:10:04;6;5;
57884;PMS5003;43703;51.060;-0.086;2022-08-03T09:12:29;7;6;
57884;PMS5003;43703;51.060;-0.086;2022-08-03T09:14:54;6;6;
57884;PMS5003;43703;51.060;-0.086;2022-08-03T09:17:20;5;4;
57884;PMS5003;43703;51.060;-0.086;2022-08-03T09:20:02;9;6;
57884;PMS5003;43703;51.060;-0.086;2022-08-03T09:22:13;5;5;
57884;PMS5003;43703;51.060;-0.086;2022-08-03T09:24:38;7;5;
57884;PMS5003;43703;51.060;-0.086;2022-08-03T09:27:05;6;5;
57884;PMS5003;43703;51.060;-0.086;2022-08-03T09:29:30;9;6;
57884;PMS5003;43703;51.060;-0.086;2022-08-03T09:31:59;11;7;
57884;PMS5003;43703;51.060;-0.086;2022-08-03T09:34:22;7;7;
57884;PMS5003;43703;51.060;-0.086;2022-08-03T09:36:47;7;7;
57884;PMS5003;43703;51.060;-0.086;2022-08-03T09:39:13;5;3;
57884;PMS5003;43703;51.060;-0.086;2022-08-03T09:41:39;6;6;
57884;PMS5003;43703;51.060;-0.086;2022-08-03T09:44:04;5;5;
57884;PMS5003;43703;51.060;-0.086;2022-08-03T09:46:30;5;4;
57884;PMS5003;43703;51.060;-0.086;2022-08-03T09:51:23;8;7;
57884;PMS5003;43703;51.060;-0.086;2022-08-03T09:53:48;4;4;
57884;PMS5003;43703;51.060;-0.086;2022-08-03T09:56:13;5;5;
57884;PMS5003;43703;51.060;-0.086;2022-08-03T09:58:44;8;4;
57884;PMS5003;43703;51.060;-0.086;2022-08-03T10:01:05;6;5;
57884;PMS5003;43703;51.060;-0.086;2022-08-03T10:03:32;8;7;
57884;PMS5003;43703;51.060;-0.086;2022-08-03T10:05:56;10;5;
57884;PMS5003;43703;51.060;-0.086;2022-08-03T10:08:22;10;7;
57884;PMS5003;43703;51.060;-0.086;2022-08-03T10:10:49;5;3;
57884;PMS5003;43703;51.060;-0.086;2022-08-03T10:13:14;7;4;
57884;PMS5003;43703;51.060;-0.086;2022-08-03T10:15:39;4;3;
57884;PMS5003;43703;51.060;-0.086;2022-08-03T10:18:06;4;4;
57884;PMS5003;43703;51.060;-0.086;2022-08-03T10:20:32;3;3;
57884;PMS5003;43703;51.060;-0.086;2022-08-03T10:22:57;3;3;
57884;PMS5003;43703;51.060;-0.086;2022-08-03T10:25:23;3;3;
57884;PMS5003;43703;51.060;-0.086;2022-08-03T10:27:48;5;5;
57884;PMS5003;43703;51.060;-0.086;2022-08-03T10:30:15;5;5;
57884;PMS5003;43703;51.060;-0.086;2022-08-03T10:32:41;5;4;
57884;PMS5003;43703;51.060;-0.086;2022-08-03T10:35:07;6;5;
57884;PMS5003;43703;51.060;-0.086;2022-08-03T10:37:42;3;3;
57884;PMS5003;43703;51.060;-0.086;2022-08-03T10:39:59;4;4;
57884;PMS5003;43703;51.060;-0.086;2022-08-03T10:42:24;3;3;
57884;PMS5003;43703;51.060;-0.086;2022-08-03T10:44:51;6;4;
57884;PMS5003;43703;51.060;-0.086;2022-08-03T10:47:15;6;6;
57884;PMS5003;43703;51.060;-0.086;2022-08-03T10:49:41;5;5;
57884;PMS5003;43703;51.060;-0.086;2022-08-03T10:52:06;5;5;
57884;PMS5003;43703;51.060;-0.086;2022-08-03T10:54:37;4;4;
57884;PMS5003;43703;51.060;-0.086;2022-08-03T10:56:58;5;5;
57884;PMS5003;43703;51.060;-0.086;2022-08-03T11:01:51;4;4;
57884;PMS5003;43703;51.060;-0.086;2022-08-03T11:04:16;3;3;
57884;PMS5003;43703;51.060;-0.086;2022-08-03T11:06:41;6;5;
57884;PMS5003;43703;51.060;-0.086;2022-08-03T11:11:33;4;4;
57884;PMS5003;43703;51.060;-0.086;2022-08-03T11:14:00;5;5;
57884;PMS5003;43703;51.060;-0.086;2022-08-03T11:16:25;5;4;
57884;PMS5003;43703;51.060;-0.086;2022-08-03T11:18:55;7;7;
57884;PMS5003;43703;51.060;-0.086;2022-08-03T11:21:16;2;2;
57884;PMS5003;43703;51.060;-0.086;2022-08-03T11:23:43;4;4;
57884;PMS5003;43703;51.060;-0.086;2022-08-03T11:26:11;4;4;
57884;PMS5003;43703;51.060;-0.086;2022-08-03T11:28:34;4;4;
57884;PMS5003;43703;51.060;-0.086;2022-08-03T11:33:28;4;3;
57884;PMS5003;43703;51.060;-0.086;2022-08-03T11:38:17;3;3;
57884;PMS5003;43703;51.060;-0.086;2022-08-03T11:40:44;1;1;
57884;PMS5003;43703;51.060;-0.086;2022-08-03T11:43:43;4;4;
57884;PMS5003;43703;51.060;-0.086;2022-08-03T11:45:35;3;2;
57884;PMS5003;43703;51.060;-0.086;2022-08-03T11:48:10;2;2;
57884;PMS5003;43703;51.060;-0.086;2022-08-03T11:50:31;5;3;
57884;PMS5003;43703;51.060;-0.086;2022-08-03T11:52:52;4;2;
57884;PMS5003;43703;51.060;-0.086;2022-08-03T11:55:18;5;3;
57884;PMS5003;43703;51.060;-0.086;2022-08-03T11:57:44;7;5;
57884;PMS5003;43703;51.060;-0.086;2022-08-03T12:02:35;5;4;
57884;PMS5003;43703;51.060;-0.086;2022-08-03T12:05:01;4;4;
57884;PMS5003;43703;51.060;-0.086;2022-08-03T12:07:28;3;3;
57884;PMS5003;43703;51.060;-0.086;2022-08-03T12:12:19;6;3;
57884;PMS5003;43703;51.060;-0.086;2022-08-03T12:14:45;3;3;
57884;PMS5003;43703;51.060;-0.086;2022-08-03T12:17:10;3;3;
57884;PMS5003;43703;51.060;-0.086;2022-08-03T12:19:40;5;4;
57884;PMS5003;43703;51.060;-0.086;2022-08-03T12:22:02;5;3;
57884;PMS5003;43703;51.060;-0.086;2022-08-03T12:24:38;3;3;
57884;PMS5003;43703;51.060;-0.086;2022-08-03T12:26:54;4;4;
57884;PMS5003;43703;51.060;-0.086;2022-08-03T12:29:20;3;3;
57884;PMS5003;43703;51.060;-0.086;2022-08-03T12:31:45;3;3;
57884;PMS5003;43703;51.060;-0.086;2022-08-03T12:34:11;2;2;
57884;PMS5003;43703;51.060;-0.086;2022-08-03T12:36:37;1;1;
57884;PMS5003;43703;51.060;-0.086;2022-08-03T12:39:03;4;4;
57884;PMS5003;43703;51.060;-0.086;2022-08-03T12:41:30;3;2;
57884;PMS5003;43703;51.060;-0.086;2022-08-03T12:43:54;3;3;
57884;PMS5003;43703;51.060;-0.086;2022-08-03T12:46:20;6;3;
57884;PMS5003;43703;51.060;-0.086;2022-08-03T12:51:12;2;2;
57884;PMS5003;43703;51.060;-0.086;2022-08-03T12:53:38;4;4;
57884;PMS5003;43703;51.060;-0.086;2022-08-03T12:56:05;3;3;
57884;PMS5003;43703;51.060;-0.086;2022-08-03T12:58:30;5;4;
57884;PMS5003;43703;51.060;-0.086;2022-08-03T13:00:55;3;3;
57884;PMS5003;43703;51.060;-0.086;2022-08-03T13:03:21;3;3;
57884;PMS5003;43703;51.060;-0.086;2022-08-03T13:05:47;1;1;
57884;PMS5003;43703;51.060;-0.086;2022-08-03T13:08:17;4;4;
57884;PMS5003;43703;51.060;-0.086;2022-08-03T13:10:38;5;4;
57884;PMS5003;43703;51.060;-0.086;2022-08-03T13:13:04;3;3;
57884;PMS5003;43703;51.060;-0.086;2022-08-03T13:15:30;5;4;
57884;PMS5003;43703;51.060;-0.086;2022-08-03T13:17:56;3;3;
57884;PMS5003;43703;51.060;-0.086;2022-08-03T13:20:22;2;2;
57884;PMS5003;43703;51.060;-0.086;2022-08-03T13:22:48;3;3;
57884;PMS5003;43703;51.060;-0.086;2022-08-03T13:25:14;4;4;
57884;PMS5003;43703;51.060;-0.086;2022-08-03T13:27:39;4;4;
57884;PMS5003;43703;51.060;-0.086;2022-08-03T13:30:06;3;3;
57884;PMS5003;43703;51.060;-0.086;2022-08-03T13:32:31;3;3;
57884;PMS5003;43703;51.060;-0.086;2022-08-03T13:34:57;6;3;
57884;PMS5003;43703;51.060;-0.086;2022-08-03T13:37:23;5;3;
57884;PMS5003;43703;51.060;-0.086;2022-08-03T13:39:48;4;4;
57884;PMS5003;43703;51.060;-0.086;2022-08-03T13:42:14;3;3;
57884;PMS5003;43703;51.060;-0.086;2022-08-03T13:44:40;2;2;
57884;PMS5003;43703;51.060;-0.086;2022-08-03T13:47:06;4;4;
57884;PMS5003;43703;51.060;-0.086;2022-08-03T13:49:32;3;3;
57884;PMS5003;43703;51.060;-0.086;2022-08-03T13:51:58;3;3;
57884;PMS5003;43703;51.060;-0.086;2022-08-03T13:54:24;3;3;
57884;PMS5003;43703;51.060;-0.086;2022-08-03T13:56:49;4;4;
57884;PMS5003;43703;51.060;-0.086;2022-08-03T13:59:15;5;5;
57884;PMS5003;43703;51.060;-0.086;2022-08-03T14:01:41;6;5;
57884;PMS5003;43703;51.060;-0.086;2022-08-03T14:04:07;5;5;
57884;PMS5003;43703;51.060;-0.086;2022-08-03T14:06:32;3;3;
57884;PMS5003;43703;51.060;-0.086;2022-08-03T14:08:58;3;3;
57884;PMS5003;43703;51.060;-0.086;2022-08-03T14:11:24;5;5;
57884;PMS5003;43703;51.060;-0.086;2022-08-03T14:13:50;5;5;
57884;PMS5003;43703;51.060;-0.086;2022-08-03T14:16:16;4;4;
57884;PMS5003;43703;51.060;-0.086;2022-08-03T14:18:42;5;4;
57884;PMS5003;43703;51.060;-0.086;2022-08-03T14:21:07;4;4;
57884;PMS5003;43703;51.060;-0.086;2022-08-03T14:23:34;6;5;
57884;PMS5003;43703;51.060;-0.086;2022-08-03T14:25:59;3;1;
57884;PMS5003;43703;51.060;-0.086;2022-08-03T14:28:25;5;5;
57884;PMS5003;43703;51.060;-0.086;2022-08-03T14:30:51;5;4;
57884;PMS5003;43703;51.060;-0.086;2022-08-03T14:33:17;4;4;
57884;PMS5003;43703;51.060;-0.086;2022-08-03T14:35:42;6;5;
57884;PMS5003;43703;51.060;-0.086;2022-08-03T14:38:08;4;4;
57884;PMS5003;43703;51.060;-0.086;2022-08-03T14:40:34;3;3;
57884;PMS5003;43703;51.060;-0.086;2022-08-03T14:43:00;6;5;
57884;PMS5003;43703;51.060;-0.086;2022-08-03T14:45:26;5;5;
57884;PMS5003;43703;51.060;-0.086;2022-08-03T14:47:52;2;2;
57884;PMS5003;43703;51.060;-0.086;2022-08-03T14:50:18;3;3;
57884;PMS5003;43703;51.060;-0.086;2022-08-03T14:52:43;3;3;
57884;PMS5003;43703;51.060;-0.086;2022-08-03T14:55:09;7;5;
57884;PMS5003;43703;51.060;-0.086;2022-08-03T14:57:35;3;3;
57884;PMS5003;43703;51.060;-0.086;2022-08-03T15:00:01;2;2;
57884;PMS5003;43703;51.060;-0.086;2022-08-03T15:02:27;6;6;
57884;PMS5003;43703;51.060;-0.086;2022-08-03T15:04:52;3;3;
57884;PMS5003;43703;51.060;-0.086;2022-08-03T15:07:18;6;5;
57884;PMS5003;43703;51.060;-0.086;2022-08-03T15:09:44;4;3;
57884;PMS5003;43703;51.060;-0.086;2022-08-03T15:12:10;5;5;
57884;PMS5003;43703;51.060;-0.086;2022-08-03T15:14:36;3;3;
57884;PMS5003;43703;51.060;-0.086;2022-08-03T15:17:02;6;3;
57884;PMS5003;43703;51.060;-0.086;2022-08-03T15:19:27;4;3;
57884;PMS5003;43703;51.060;-0.086;2022-08-03T15:21:53;5;5;
57884;PMS5003;43703;51.060;-0.086;2022-08-03T15:24:19;5;3;
57884;PMS5003;43703;51.060;-0.086;2022-08-03T15:26:45;4;4;
57884;PMS5003;43703;51.060;-0.086;2022-08-03T15:29:11;6;5;
57884;PMS5003;43703;51.060;-0.086;2022-08-03T15:31:37;6;6;
57884;PMS5003;43703;51.060;-0.086;2022-08-03T15:34:02;5;5;
57884;PMS5003;43703;51.060;-0.086;2022-08-03T15:36:28;5;5;
57884;PMS5003;43703;51.060;-0.086;2022-08-03T15:38:54;5;5;
57884;PMS5003;43703;51.060;-0.086;2022-08-03T15:41:20;4;4;
57884;PMS5003;43703;51.060;-0.086;2022-08-03T15:43:46;7;6;
57884;PMS5003;43703;51.060;-0.086;2022-08-03T15:46:12;4;4;
57884;PMS5003;43703;51.060;-0.086;2022-08-03T15:48:38;5;4;
57884;PMS5003;43703;51.060;-0.086;2022-08-03T15:51:03;4;4;
57884;PMS5003;43703;51.060;-0.086;2022-08-03T15:53:29;4;4;
57884;PMS5003;43703;51.060;-0.086;2022-08-03T15:55:55;3;3;
57884;PMS5003;43703;51.060;-0.086;2022-08-03T15:58:21;3;3;
57884;PMS5003;43703;51.060;-0.086;2022-08-03T16:00:47;3;2;
57884;PMS5003;43703;51.060;-0.086;2022-08-03T16:03:13;6;5;
57884;PMS5003;43703;51.060;-0.086;2022-08-03T16:05:38;3;3;
57884;PMS5003;43703;51.060;-0.086;2022-08-03T16:08:04;5;3;
57884;PMS5003;43703;51.060;-0.086;2022-08-03T16:10:30;6;4;
57884;PMS5003;43703;51.060;-0.086;2022-08-03T16:12:56;5;5;
57884;PMS5003;43703;51.060;-0.086;2022-08-03T16:15:22;5;4;
57884;PMS5003;43703;51.060;-0.086;2022-08-03T16:17:48;5;4;
57884;PMS5003;43703;51.060;-0.086;2022-08-03T16:20:14;5;4;
57884;PMS5003;43703;51.060;-0.086;2022-08-03T16:22:40;3;3;
57884;PMS5003;43703;51.060;-0.086;2022-08-03T16:25:05;3;3;
57884;PMS5003;43703;51.060;-0.086;2022-08-03T16:27:31;4;4;
57884;PMS5003;43703;51.060;-0.086;2022-08-03T16:29:57;4;4;
57884;PMS5003;43703;51.060;-0.086;2022-08-03T16:32:23;4;4;
57884;PMS5003;43703;51.060;-0.086;2022-08-03T16:34:48;2;2;
57884;PMS5003;43703;51.060;-0.086;2022-08-03T16:37:14;4;4;
57884;PMS5003;43703;51.060;-0.086;2022-08-03T16:39:40;4;1;
57884;PMS5003;43703;51.060;-0.086;2022-08-03T16:42:06;4;4;